createdAt,value
2022-12-25T00:01:17.840Z,1.55
2022-12-25T00:03:45.046Z,2.15
2022-12-25T00:06:12.226Z,1.50
2022-12-25T00:08:40.347Z,1.50
2022-12-25T00:11:10.815Z,1.33
2022-12-25T00:13:38.464Z,1.55
2022-12-25T00:16:13.455Z,1.70
2022-12-25T00:18:40.526Z,1.77
2022-12-25T00:21:07.615Z,2.70
2022-12-25T00:23:35.430Z,2.42
2022-12-25T00:26:11.135Z,1.42
2022-12-25T00:28:38.345Z,1.13
2022-12-25T00:31:11.214Z,1.73
2022-12-25T00:33:40.270Z,1.85
2022-12-25T00:36:08.482Z,2.22
2022-12-25T00:38:36.917Z,2.30
2022-12-25T00:41:12.189Z,1.88
2022-12-25T00:43:41.707Z,1.37
2022-12-25T00:46:10.446Z,1.98
2022-12-25T00:48:37.651Z,1.42
2022-12-25T00:51:07.052Z,1.77
2022-12-25T00:53:34.106Z,1.60
2022-12-25T00:56:05.784Z,2.17
2022-12-25T00:58:34.665Z,1.60
2022-12-25T01:01:02.937Z,1.27
2022-12-25T01:03:31.524Z,1.40
2022-12-25T01:06:00.976Z,1.40
2022-12-25T01:08:30.235Z,1.33
2022-12-25T01:10:58.998Z,1.42
2022-12-25T01:13:26.319Z,2.15
2022-12-25T01:15:54.363Z,1.30
2022-12-25T01:18:22.890Z,1.38
2022-12-25T01:20:50.089Z,1.83
2022-12-25T01:23:17.168Z,1.75
2022-12-25T01:25:44.222Z,2.03
2022-12-25T01:28:11.292Z,2.20
2022-12-25T01:30:39.468Z,1.70
2022-12-25T01:33:06.664Z,1.50
2022-12-25T01:35:33.728Z,1.80
2022-12-25T01:38:00.930Z,2.42
2022-12-25T01:40:28.083Z,2.20
2022-12-25T01:42:55.168Z,1.88
2022-12-25T01:45:41.206Z,1.70
2022-12-25T01:48:13.317Z,2.15
2022-12-25T01:50:42.521Z,2.38
2022-12-25T01:53:09.759Z,1.60
2022-12-25T01:55:37.572Z,2.20
2022-12-25T01:58:04.795Z,2.27
2022-12-25T02:00:31.976Z,1.85
2022-12-25T02:02:59.223Z,2.63
2022-12-25T02:05:29.941Z,2.65
2022-12-25T02:08:01.325Z,2.25
2022-12-25T02:10:28.754Z,2.30
2022-12-25T02:12:56.155Z,2.10
2022-12-25T02:15:28.102Z,2.65
2022-12-25T02:18:07.206Z,2.88
2022-12-25T02:20:41.593Z,2.70
2022-12-25T02:23:56.882Z,2.40
2022-12-25T02:26:33.102Z,2.60
2022-12-25T02:29:05.321Z,2.88
2022-12-25T02:31:40.006Z,2.40
2022-12-25T02:34:30.183Z,3.25
2022-12-25T02:37:06.245Z,2.50
2022-12-25T02:39:58.866Z,2.35
2022-12-25T02:43:02.850Z,2.95
2022-12-25T02:45:54.698Z,2.13
2022-12-25T02:48:42.745Z,2.40
2022-12-25T02:51:35.473Z,2.60
2022-12-25T02:54:25.494Z,1.80
2022-12-25T02:57:12.979Z,2.00
2022-12-25T02:59:59.255Z,2.30
2022-12-25T03:02:46.731Z,1.90
2022-12-25T03:05:34.893Z,1.90
2022-12-25T03:08:05.848Z,2.00
2022-12-25T03:10:53.809Z,1.85
2022-12-25T03:13:23.659Z,1.98
2022-12-25T03:16:09.269Z,1.83
2022-12-25T03:18:36.724Z,1.97
2022-12-25T03:21:22.530Z,1.70
2022-12-25T03:24:09.608Z,1.92
2022-12-25T03:26:55.220Z,2.05
2022-12-25T03:29:46.041Z,1.60
2022-12-25T03:32:25.914Z,1.67
2022-12-25T03:35:20.247Z,1.75
2022-12-25T03:38:15.102Z,1.65
2022-12-25T03:41:11.563Z,2.55
2022-12-25T03:44:08.686Z,1.85
2022-12-25T03:46:55.793Z,1.70
2022-12-25T03:49:45.750Z,2.00
2022-12-25T03:52:33.442Z,1.80
2022-12-25T03:55:21.889Z,1.80
2022-12-25T03:58:07.735Z,2.13
2022-12-25T04:00:53.128Z,1.70
2022-12-25T04:03:38.863Z,1.85
2022-12-25T04:06:24.709Z,1.40
2022-12-25T04:09:10.729Z,1.60
2022-12-25T04:12:02.237Z,2.45
2022-12-25T04:14:49.091Z,1.90
2022-12-25T04:17:34.657Z,2.00
2022-12-25T04:20:20.196Z,1.95
2022-12-25T04:23:05.809Z,2.63
2022-12-25T04:25:51.242Z,2.17
2022-12-25T04:28:41.227Z,1.60
2022-12-25T04:31:26.966Z,1.55
2022-12-25T04:34:12.640Z,2.05
2022-12-25T04:36:39.707Z,1.80
2022-12-25T04:39:06.770Z,1.83
2022-12-25T04:41:33.872Z,1.53
2022-12-25T04:44:00.915Z,1.60
2022-12-25T04:46:28.064Z,1.67
2022-12-25T04:48:55.190Z,1.20
2022-12-25T04:51:24.285Z,1.80
2022-12-25T04:53:52.745Z,1.63
2022-12-25T04:56:20.412Z,1.83
2022-12-25T04:58:47.469Z,1.48
2022-12-25T05:01:15.241Z,2.00
2022-12-25T05:03:42.726Z,1.88
2022-12-25T05:06:09.835Z,1.70
2022-12-25T05:08:37.274Z,1.30
2022-12-25T05:11:09.804Z,1.75
2022-12-25T05:13:36.898Z,2.33
2022-12-25T05:16:08.643Z,2.47
2022-12-25T05:18:36.120Z,1.80
2022-12-25T05:21:03.985Z,1.55
2022-12-25T05:23:31.195Z,1.42
2022-12-25T05:25:58.434Z,1.70
2022-12-25T05:28:25.599Z,1.85
2022-12-25T05:30:56.679Z,1.80
2022-12-25T05:33:23.741Z,1.85
2022-12-25T05:35:50.864Z,1.67
2022-12-25T05:38:17.897Z,1.90
2022-12-25T05:40:45.001Z,1.67
2022-12-25T05:43:12.044Z,1.40
2022-12-25T05:45:39.169Z,1.80
2022-12-25T05:48:06.634Z,1.63
2022-12-25T05:50:39.291Z,1.52
2022-12-25T05:53:08.961Z,1.60
2022-12-25T05:55:36.974Z,1.80
2022-12-25T05:58:05.010Z,1.77
2022-12-25T06:00:32.193Z,1.80
2022-12-25T06:02:59.476Z,1.50
2022-12-25T06:05:26.786Z,1.98
2022-12-25T06:07:53.855Z,1.73
2022-12-25T06:10:21.014Z,1.45
2022-12-25T06:12:48.131Z,1.92
2022-12-25T06:15:15.472Z,1.70
2022-12-25T06:17:42.510Z,2.20
2022-12-25T06:20:09.882Z,2.00
2022-12-25T06:22:36.921Z,1.33
2022-12-25T06:25:04.320Z,1.67
2022-12-25T06:27:31.398Z,1.27
2022-12-25T06:29:58.433Z,1.80
2022-12-25T06:32:25.502Z,1.90
2022-12-25T06:34:52.569Z,1.55
2022-12-25T06:37:19.852Z,1.77
2022-12-25T06:39:47.966Z,2.05
2022-12-25T06:42:14.999Z,1.10
2022-12-25T06:44:42.105Z,1.53
2022-12-25T06:47:09.272Z,1.55
2022-12-25T06:49:36.436Z,1.33
2022-12-25T06:52:03.512Z,1.27
2022-12-25T06:54:30.529Z,1.55
2022-12-25T06:56:57.594Z,1.60
2022-12-25T06:59:25.094Z,1.45
2022-12-25T07:01:58.442Z,1.67
2022-12-25T07:04:35.620Z,1.27
2022-12-25T07:07:08.445Z,1.50
2022-12-25T07:09:38.638Z,1.47
2022-12-25T07:12:21.679Z,1.48
2022-12-25T07:14:50.227Z,1.33
2022-12-25T07:17:17.865Z,1.60
2022-12-25T07:19:46.509Z,1.38
2022-12-25T07:22:14.198Z,1.63
2022-12-25T07:24:41.568Z,1.60
2022-12-25T07:27:09.030Z,1.50
2022-12-25T07:29:36.086Z,1.33
2022-12-25T07:32:03.234Z,1.40
2022-12-25T07:34:30.939Z,1.43
2022-12-25T07:36:57.985Z,1.45
2022-12-25T07:39:25.087Z,1.50
2022-12-25T07:41:52.141Z,1.55
2022-12-25T07:44:19.256Z,1.50
2022-12-25T07:46:46.434Z,1.60
2022-12-25T07:49:13.512Z,1.50
2022-12-25T07:51:40.615Z,2.08
2022-12-25T07:54:07.674Z,1.30
2022-12-25T07:56:34.831Z,2.22
2022-12-25T07:59:01.895Z,1.67
2022-12-25T08:01:29.943Z,1.85
2022-12-25T08:03:59.766Z,2.05
2022-12-25T08:06:30.167Z,1.73
2022-12-25T08:08:58.422Z,1.77
2022-12-25T08:11:25.487Z,2.17
2022-12-25T08:13:52.614Z,2.17
2022-12-25T08:16:19.693Z,2.15
2022-12-25T08:18:46.887Z,2.33
2022-12-25T08:21:15.059Z,2.15
2022-12-25T08:23:43.609Z,2.20
2022-12-25T08:26:13.221Z,2.13
2022-12-25T08:28:40.411Z,2.10
2022-12-25T08:31:18.225Z,2.47
2022-12-25T08:33:45.763Z,2.17
2022-12-25T08:36:13.274Z,2.83
2022-12-25T08:38:40.946Z,1.75
2022-12-25T08:41:08.634Z,1.90
2022-12-25T08:43:36.059Z,1.45
2022-12-25T08:46:03.668Z,1.80
2022-12-25T08:48:30.791Z,2.00
2022-12-25T08:50:57.897Z,2.22
2022-12-25T08:53:25.241Z,1.55
2022-12-25T08:56:06.432Z,1.33
2022-12-25T08:58:33.954Z,1.85
2022-12-25T09:01:01.081Z,1.70
2022-12-25T09:03:28.431Z,1.45
2022-12-25T09:05:55.541Z,2.08
2022-12-25T09:08:22.999Z,1.90
2022-12-25T09:10:50.082Z,1.70
2022-12-25T09:13:17.097Z,1.13
2022-12-25T09:15:44.201Z,1.42
2022-12-25T09:18:11.255Z,1.67
2022-12-25T09:20:38.298Z,1.30
2022-12-25T09:23:11.670Z,1.33
2022-12-25T09:25:40.770Z,1.50
2022-12-25T09:28:07.857Z,1.60
2022-12-25T09:30:34.939Z,1.50
2022-12-25T09:33:02.010Z,1.70
2022-12-25T09:35:29.092Z,1.60
2022-12-25T09:37:56.129Z,1.50
2022-12-25T09:40:24.897Z,1.33
2022-12-25T09:42:53.941Z,1.30
2022-12-25T09:45:34.968Z,1.30
2022-12-25T09:48:02.163Z,1.55
2022-12-25T09:50:49.384Z,1.67
2022-12-25T09:53:20.755Z,1.23
2022-12-25T09:56:12.104Z,1.27
2022-12-25T09:58:39.460Z,1.63
2022-12-25T10:01:16.015Z,1.40
2022-12-25T10:04:18.503Z,1.40
2022-12-25T10:07:00.398Z,1.33
2022-12-25T10:09:55.018Z,1.55
2022-12-25T10:12:32.335Z,1.48
2022-12-25T10:15:16.311Z,1.42
2022-12-25T10:18:17.948Z,1.40
2022-12-25T10:20:52.414Z,1.73
2022-12-25T10:23:23.857Z,1.67
2022-12-25T10:25:51.924Z,1.77
2022-12-25T10:28:30.285Z,1.40
2022-12-25T10:31:00.361Z,1.63
2022-12-25T10:33:27.526Z,1.90
2022-12-25T10:35:54.596Z,1.50
2022-12-25T10:38:22.434Z,1.90
2022-12-25T10:41:21.515Z,1.88
2022-12-25T10:43:57.303Z,1.53
2022-12-25T10:46:26.772Z,1.92
2022-12-25T10:48:56.868Z,1.60
2022-12-25T10:51:37.917Z,1.80
2022-12-25T10:54:24.479Z,1.80
2022-12-25T10:56:56.810Z,1.63
2022-12-25T10:59:26.360Z,1.77
2022-12-25T11:01:55.665Z,1.88
2022-12-25T11:04:26.452Z,1.92
2022-12-25T11:07:02.888Z,1.50
2022-12-25T11:09:29.947Z,2.10
2022-12-25T11:11:57.027Z,1.63
2022-12-25T11:14:24.080Z,1.83
2022-12-25T11:16:51.227Z,2.05
2022-12-25T11:19:30.024Z,2.00
2022-12-25T11:21:59.580Z,2.33
2022-12-25T11:24:28.965Z,2.05
2022-12-25T11:27:01.355Z,2.67
2022-12-25T11:29:36.620Z,2.30
2022-12-25T11:32:05.424Z,2.38
2022-12-25T11:34:41.855Z,1.53
2022-12-25T11:37:14.962Z,1.20
2022-12-25T11:39:42.071Z,1.35
2022-12-25T11:42:18.490Z,0.75
2022-12-25T11:44:51.713Z,1.48
2022-12-25T11:47:26.323Z,1.20
2022-12-25T11:50:01.031Z,1.13
2022-12-25T11:52:33.840Z,1.27
2022-12-25T11:55:10.324Z,1.83
2022-12-25T11:57:37.979Z,1.17
2022-12-25T12:00:09.420Z,1.40
2022-12-25T12:02:45.489Z,0.80
2022-12-25T12:05:39.169Z,1.50
2022-12-25T12:08:06.616Z,1.10
2022-12-25T12:10:48.089Z,0.98
2022-12-25T12:13:47.664Z,1.37
2022-12-25T12:16:14.790Z,0.90
2022-12-25T12:18:48.093Z,1.40
2022-12-25T12:21:27.189Z,0.90
2022-12-25T12:24:05.472Z,1.48
2022-12-25T12:26:40.786Z,0.90
2022-12-25T12:29:22.038Z,1.05
2022-12-25T12:31:49.943Z,1.40
2022-12-25T12:34:20.825Z,0.80
2022-12-25T12:36:49.087Z,0.85
2022-12-25T12:39:25.782Z,1.23
2022-12-25T12:41:52.890Z,1.25
2022-12-25T12:44:20.416Z,0.95
2022-12-25T12:46:53.733Z,1.08
2022-12-25T12:49:23.336Z,1.10
2022-12-25T12:51:51.107Z,1.20
2022-12-25T12:54:25.753Z,1.10
2022-12-25T12:57:09.448Z,1.00
2022-12-25T12:59:43.549Z,1.20
2022-12-25T13:02:42.966Z,1.40
2022-12-25T13:05:34.178Z,1.30
2022-12-25T13:08:14.123Z,1.38
2022-12-25T13:10:49.228Z,1.17
2022-12-25T13:13:29.114Z,1.23
2022-12-25T13:15:57.888Z,1.48
2022-12-25T13:18:24.995Z,2.00
2022-12-25T13:21:00.976Z,1.15
2022-12-25T13:23:33.300Z,1.25
2022-12-25T13:26:01.435Z,1.05
2022-12-25T13:28:33.504Z,1.27
2022-12-25T13:31:09.727Z,1.17
2022-12-25T13:33:38.660Z,0.47
2022-12-25T13:36:10.476Z,0.47
2022-12-25T13:38:38.584Z,0.45
2022-12-25T13:41:24.308Z,0.43
2022-12-25T13:43:51.398Z,0.43
2022-12-25T13:46:26.257Z,0.55
2022-12-25T13:49:00.693Z,1.05
2022-12-25T13:51:28.403Z,1.10
2022-12-25T13:54:06.719Z,1.25
2022-12-25T13:56:34.920Z,0.97
2022-12-25T13:59:03.592Z,0.88
2022-12-25T14:01:30.784Z,1.33
2022-12-25T14:03:57.905Z,0.60
2022-12-25T14:06:27.698Z,0.60
2022-12-25T14:08:55.984Z,0.60
2022-12-25T14:11:25.066Z,0.70
2022-12-25T14:13:54.665Z,0.70
2022-12-25T14:16:21.980Z,0.77
2022-12-25T14:18:58.067Z,0.60
2022-12-25T14:21:29.130Z,0.60
2022-12-25T14:23:56.520Z,0.40
2022-12-25T14:26:26.541Z,0.63
2022-12-25T14:29:05.735Z,0.70
2022-12-25T14:31:33.266Z,0.80
2022-12-25T14:34:01.559Z,0.60
2022-12-25T14:36:29.278Z,0.80
2022-12-25T14:39:01.685Z,1.30
2022-12-25T14:41:34.498Z,1.17
2022-12-25T14:44:03.488Z,1.25
2022-12-25T14:46:32.239Z,0.80
2022-12-25T14:49:07.249Z,1.08
2022-12-25T14:51:38.167Z,1.00
2022-12-25T14:54:13.569Z,1.00
2022-12-25T14:56:46.738Z,0.82
2022-12-25T14:59:17.358Z,0.90
2022-12-25T15:01:50.439Z,1.30
2022-12-25T15:04:18.377Z,0.88
2022-12-25T15:07:07.195Z,0.93
2022-12-25T15:09:35.890Z,0.90
2022-12-25T15:12:03.016Z,0.73
2022-12-25T15:14:31.507Z,0.90
2022-12-25T15:17:00.825Z,0.70
2022-12-25T15:19:36.467Z,0.80
2022-12-25T15:22:04.807Z,0.68
2022-12-25T15:24:32.057Z,0.73
2022-12-25T15:27:00.632Z,0.63
2022-12-25T15:30:07.219Z,0.80
2022-12-25T15:32:20.257Z,0.60
2022-12-25T15:34:49.851Z,0.60
2022-12-25T15:37:17.905Z,0.70
2022-12-25T15:39:45.347Z,0.50
2022-12-25T15:42:17.910Z,0.80
2022-12-25T15:44:45.386Z,0.80
2022-12-25T15:47:13.806Z,1.00
2022-12-25T15:49:41.345Z,0.80
2022-12-25T15:52:11.471Z,0.80
2022-12-25T15:54:38.608Z,1.00
2022-12-25T15:57:07.047Z,0.70
2022-12-25T15:59:34.210Z,0.82
2022-12-25T16:02:01.896Z,1.03
2022-12-25T16:04:32.060Z,0.80
2022-12-25T16:06:59.582Z,0.82
2022-12-25T16:09:27.522Z,1.00
2022-12-25T16:11:54.846Z,0.88
2022-12-25T16:14:21.976Z,0.70
2022-12-25T16:16:51.084Z,0.82
2022-12-25T16:19:18.318Z,1.08
2022-12-25T16:21:46.244Z,0.82
2022-12-25T16:24:14.073Z,1.02
2022-12-25T16:26:41.202Z,0.97
2022-12-25T16:29:08.351Z,1.50
2022-12-25T16:31:36.597Z,1.70
2022-12-25T16:34:04.715Z,2.20
2022-12-25T16:36:32.312Z,1.70
2022-12-25T16:38:59.346Z,1.20
2022-12-25T16:41:26.485Z,1.35
2022-12-25T16:43:53.532Z,1.50
2022-12-25T16:46:22.215Z,1.35
2022-12-25T16:48:49.338Z,1.20
2022-12-25T16:51:19.276Z,1.07
2022-12-25T16:53:46.784Z,0.95
2022-12-25T16:56:16.131Z,1.90
2022-12-25T16:58:46.965Z,2.00
2022-12-25T17:01:16.489Z,1.55
2022-12-25T17:03:43.610Z,1.63
2022-12-25T17:06:23.003Z,1.90
2022-12-25T17:08:51.957Z,2.10
2022-12-25T17:11:23.581Z,1.58
2022-12-25T17:13:50.797Z,2.00
2022-12-25T17:16:20.449Z,1.73
2022-12-25T17:18:47.556Z,1.88
2022-12-25T17:21:14.809Z,1.77
2022-12-25T17:23:41.906Z,1.58
2022-12-25T17:26:08.983Z,1.80
2022-12-25T17:28:36.083Z,1.67
2022-12-25T17:31:08.314Z,2.38
2022-12-25T17:33:36.384Z,2.88
2022-12-25T17:36:05.534Z,4.88
2022-12-25T17:38:33.687Z,5.47
2022-12-25T17:41:02.361Z,4.03
2022-12-25T17:43:29.553Z,3.30
2022-12-25T17:45:56.605Z,2.80
2022-12-25T17:48:23.685Z,1.95
2022-12-25T17:50:50.727Z,1.38
2022-12-25T17:53:19.246Z,1.20
2022-12-25T17:55:46.288Z,1.17
2022-12-25T17:58:13.319Z,1.00
2022-12-25T18:00:40.401Z,0.95
2022-12-25T18:03:11.651Z,0.90
2022-12-25T18:05:39.249Z,0.90
2022-12-25T18:08:06.301Z,1.10
2022-12-25T18:10:37.771Z,1.48
2022-12-25T18:13:04.860Z,1.67
2022-12-25T18:15:32.022Z,1.63
2022-12-25T18:17:59.118Z,0.70
2022-12-25T18:20:26.282Z,1.20
2022-12-25T18:22:53.369Z,1.80
2022-12-25T18:25:20.441Z,1.48
2022-12-25T18:27:47.493Z,2.20
2022-12-25T18:30:14.698Z,2.50
2022-12-25T18:32:41.792Z,1.80
2022-12-25T18:35:09.573Z,1.45
2022-12-25T18:37:40.241Z,1.30
2022-12-25T18:40:08.251Z,0.90
2022-12-25T18:42:41.263Z,0.90
2022-12-25T18:45:14.882Z,1.00
2022-12-25T18:47:42.058Z,1.13
2022-12-25T18:50:10.596Z,0.85
2022-12-25T18:52:49.658Z,0.85
2022-12-25T18:55:20.361Z,0.80
2022-12-25T18:57:48.152Z,0.68
2022-12-25T19:00:15.329Z,0.60
2022-12-25T19:02:42.552Z,0.50
2022-12-25T19:05:09.743Z,0.80
2022-12-25T19:07:38.395Z,0.70
2022-12-25T19:10:06.218Z,0.47
2022-12-25T19:12:33.319Z,0.63
2022-12-25T19:15:02.434Z,0.57
2022-12-25T19:17:31.776Z,0.90
2022-12-25T19:19:59.359Z,0.63
2022-12-25T19:22:26.425Z,0.50
2022-12-25T19:24:53.504Z,0.75
2022-12-25T19:27:20.545Z,0.63
2022-12-25T19:29:47.580Z,0.70
2022-12-25T19:32:14.689Z,0.67
2022-12-25T19:34:41.754Z,0.60
2022-12-25T19:37:08.805Z,1.00
2022-12-25T19:39:35.861Z,0.63
2022-12-25T19:42:02.905Z,0.60
2022-12-25T19:44:30.122Z,0.53
2022-12-25T19:46:57.206Z,0.63
2022-12-25T19:49:24.235Z,0.68
2022-12-25T19:51:51.278Z,0.50
2022-12-25T19:54:20.622Z,0.70
2022-12-25T19:56:48.265Z,0.60
2022-12-25T19:59:15.588Z,0.93
2022-12-25T20:01:43.376Z,0.70
2022-12-25T20:04:11.143Z,0.90
2022-12-25T20:06:39.276Z,0.80
2022-12-25T20:09:15.035Z,0.63
2022-12-25T20:11:43.482Z,0.85
2022-12-25T20:14:13.025Z,0.90
2022-12-25T20:16:40.471Z,0.70
2022-12-25T20:19:08.199Z,0.70
2022-12-25T20:21:35.481Z,0.70
2022-12-25T20:24:02.608Z,0.55
2022-12-25T20:26:30.637Z,0.70
2022-12-25T20:28:58.693Z,0.50
2022-12-25T20:31:28.327Z,0.55
2022-12-25T20:33:57.402Z,0.40
2022-12-25T20:36:24.704Z,0.70
2022-12-25T20:38:52.508Z,0.57
2022-12-25T20:41:26.735Z,0.50
2022-12-25T20:43:55.093Z,0.47
2022-12-25T20:46:22.937Z,0.33
2022-12-25T20:48:50.100Z,0.60
2022-12-25T20:51:22.259Z,0.40
2022-12-25T20:53:50.076Z,0.50
2022-12-25T20:56:19.823Z,0.60
2022-12-25T20:58:47.224Z,0.80
2022-12-25T21:01:17.415Z,0.40
2022-12-25T21:03:45.315Z,0.30
2022-12-25T21:06:12.553Z,0.30
2022-12-25T21:08:41.005Z,0.50
2022-12-25T21:11:08.963Z,0.70
2022-12-25T21:13:38.684Z,0.40
2022-12-25T21:16:08.305Z,0.43
2022-12-25T21:18:35.476Z,0.60
2022-12-25T21:21:05.744Z,0.52
2022-12-25T21:23:37.260Z,0.30
2022-12-25T21:26:18.363Z,0.40
2022-12-25T21:28:46.835Z,0.50
2022-12-25T21:31:14.100Z,0.50
2022-12-25T21:33:53.475Z,0.40
2022-12-25T21:36:33.611Z,0.57
2022-12-25T21:39:05.596Z,0.73
2022-12-25T21:41:34.150Z,0.38
2022-12-25T21:44:02.836Z,0.35
2022-12-25T21:46:30.301Z,0.45
2022-12-25T21:48:57.848Z,0.60
2022-12-25T21:51:51.153Z,0.50
2022-12-25T21:54:19.605Z,0.40
2022-12-25T21:56:47.631Z,0.65
2022-12-25T21:59:16.909Z,0.60
2022-12-25T22:01:44.851Z,0.50
2022-12-25T22:04:13.621Z,0.68
2022-12-25T22:07:00.200Z,0.50
2022-12-25T22:09:27.574Z,0.63
2022-12-25T22:12:13.044Z,0.50
2022-12-25T22:14:57.115Z,0.50
2022-12-25T22:17:47.727Z,0.45
2022-12-25T22:20:23.179Z,0.95
2022-12-25T22:22:50.580Z,0.70
2022-12-25T22:25:17.922Z,0.47
2022-12-25T22:27:45.665Z,0.70
2022-12-25T22:30:15.731Z,0.50
2022-12-25T22:32:42.918Z,0.50
2022-12-25T22:35:12.607Z,0.50
2022-12-25T22:37:41.140Z,0.60
2022-12-25T22:40:10.060Z,0.70
2022-12-25T22:42:37.923Z,0.50
2022-12-25T22:45:05.355Z,0.55
2022-12-25T22:47:32.440Z,0.60
2022-12-25T22:50:00.800Z,0.60
2022-12-25T22:52:27.870Z,0.53
2022-12-25T22:54:54.942Z,0.70
2022-12-25T22:57:22.046Z,0.57
2022-12-25T22:59:51.896Z,0.60
2022-12-25T23:02:19.273Z,0.60
2022-12-25T23:04:46.544Z,0.57
2022-12-25T23:07:14.605Z,0.65
2022-12-25T23:09:42.878Z,0.50
2022-12-25T23:12:30.732Z,0.68
2022-12-25T23:14:57.918Z,0.60
2022-12-25T23:17:44.273Z,0.60
2022-12-25T23:20:32.902Z,0.80
2022-12-25T23:23:19.262Z,0.90
2022-12-25T23:26:05.296Z,0.80
2022-12-25T23:28:50.647Z,0.60
2022-12-25T23:31:18.131Z,0.70
2022-12-25T23:33:45.212Z,0.70
2022-12-25T23:36:12.284Z,1.10
2022-12-25T23:38:39.599Z,0.57
2022-12-25T23:41:07.953Z,0.93
2022-12-25T23:43:34.991Z,0.80
2022-12-25T23:46:02.103Z,1.00
2022-12-25T23:48:29.361Z,0.90
2022-12-25T23:50:56.585Z,1.00
2022-12-25T23:53:23.689Z,0.88
2022-12-25T23:55:55.641Z,0.80
2022-12-25T23:58:24.135Z,0.77
